createdAt,value
2022-08-12T11:04:22.957Z,61.80
2022-08-12T11:04:25.225Z,58.40
2022-08-12T11:07:05.822Z,65.20
2022-08-12T11:08:34.024Z,67.40
2022-08-12T11:09:18.902Z,52.20
2022-08-12T11:11:13.707Z,69.40
2022-08-12T11:12:58.407Z,56.20
2022-08-12T11:14:48.424Z,56.00
2022-08-12T11:16:25.340Z,59.80
2022-08-12T11:18:03.204Z,54.60
2022-08-12T11:19:37.025Z,52.40
2022-08-12T11:21:09.277Z,57.20
2022-08-12T11:23:03.603Z,50.40
2022-08-12T11:24:36.293Z,59.80
2022-08-12T11:26:08.452Z,50.20
2022-08-12T11:27:40.815Z,50.20
2022-08-12T11:29:22.451Z,46.20
2022-08-12T11:30:54.938Z,51.60
2022-08-12T11:32:26.774Z,49.80
2022-08-12T11:34:04.407Z,49.00
2022-08-12T11:35:44.923Z,47.60
2022-08-12T11:37:25.496Z,32.20
2022-08-12T11:38:58.208Z,50.00
2022-08-12T11:40:29.997Z,47.60
2022-08-12T11:42:02.058Z,47.60
2022-08-12T11:43:50.671Z,44.00
2022-08-12T11:45:27.810Z,47.80
2022-08-12T11:47:11.567Z,43.20
2022-08-12T11:48:51.092Z,49.40
2022-08-12T11:50:32.382Z,49.80
2022-08-12T11:52:27.243Z,58.60
2022-08-12T11:54:00.051Z,49.80
2022-08-12T11:55:33.185Z,47.20
2022-08-12T11:58:08.682Z,51.00
2022-08-12T12:02:40.585Z,57.00
2022-08-12T12:04:12.624Z,49.80
2022-08-12T12:06:01.007Z,49.20
2022-08-12T12:08:41.024Z,56.00
2022-08-12T12:09:31.636Z,50.00
2022-08-12T12:11:23.681Z,54.40
2022-08-12T12:12:55.353Z,57.80
2022-08-12T12:14:38.043Z,50.80
2022-08-12T12:16:10.753Z,49.80
2022-08-12T12:17:42.584Z,51.80
2022-08-12T12:19:14.591Z,56.60
2022-08-12T12:20:46.471Z,55.40
2022-08-12T12:22:23.049Z,56.80
2022-08-12T12:23:55.623Z,57.80
2022-08-12T12:26:07.486Z,56.20
2022-08-12T12:27:39.392Z,54.20
2022-08-12T12:30:18.335Z,57.60
2022-08-12T12:31:14.869Z,54.20
2022-08-12T12:33:01.247Z,69.20
2022-08-12T12:34:32.988Z,73.20
2022-08-12T12:36:20.172Z,72.00
2022-08-12T12:38:05.517Z,77.50
2022-08-12T12:39:55.331Z,70.20
2022-08-12T12:42:40.596Z,61.20
2022-08-12T12:43:28.736Z,70.40
2022-08-12T12:45:19.035Z,66.60
2022-08-12T12:46:52.190Z,64.80
2022-08-12T12:48:29.083Z,66.20
2022-08-12T12:50:00.853Z,68.80
2022-08-12T12:52:17.262Z,59.20
2022-08-12T12:54:07.453Z,52.20
2022-08-12T12:55:18.844Z,70.80
2022-08-12T12:56:52.368Z,66.20
2022-08-12T12:58:26.992Z,69.40
2022-08-12T13:00:15.319Z,73.00
2022-08-12T13:01:47.088Z,66.80
2022-08-12T13:03:23.030Z,66.80
2022-08-12T13:04:54.742Z,67.00
2022-08-12T13:06:30.092Z,65.00
2022-08-12T13:08:04.030Z,67.40
2022-08-12T13:09:37.875Z,62.40
2022-08-12T13:11:10.986Z,59.80
2022-08-12T13:12:48.518Z,66.80
2022-08-12T13:14:29.284Z,56.20
2022-08-12T13:16:03.197Z,66.40
2022-08-12T13:18:02.069Z,67.60
2022-08-12T13:19:38.842Z,53.40
2022-08-12T13:21:33.473Z,58.80
2022-08-12T13:23:36.900Z,57.20
2022-08-12T13:25:02.243Z,50.80
2022-08-12T13:26:34.978Z,55.80
2022-08-12T13:28:09.730Z,57.80
2022-08-12T13:29:41.405Z,58.60
2022-08-12T13:31:13.497Z,57.80
2022-08-12T13:32:57.097Z,55.20
2022-08-12T13:34:35.202Z,51.40
2022-08-12T13:36:10.253Z,50.20
2022-08-12T13:37:54.826Z,44.40
2022-08-12T13:39:31.248Z,53.20
2022-08-12T13:41:34.327Z,45.40
2022-08-12T13:43:06.378Z,43.80
2022-08-12T13:44:38.123Z,44.00
2022-08-12T13:46:14.197Z,50.20
2022-08-12T13:47:56.739Z,49.20
2022-08-12T13:49:55.292Z,50.60
2022-08-12T13:51:24.588Z,46.20
2022-08-12T13:52:56.621Z,45.40
2022-08-12T13:54:29.705Z,45.20
2022-08-12T13:56:02.291Z,48.00
2022-08-12T13:57:46.870Z,40.60
2022-08-12T13:59:24.520Z,37.00
2022-08-12T14:00:58.601Z,37.40
2022-08-12T14:02:30.425Z,50.80
2022-08-12T14:04:04.708Z,41.60
2022-08-12T14:05:39.283Z,38.40
2022-08-12T14:07:11.134Z,39.20
2022-08-12T14:08:44.460Z,38.00
2022-08-12T14:10:37.451Z,33.80
2022-08-12T14:12:09.375Z,29.40
2022-08-12T14:14:04.563Z,30.00
2022-08-12T14:15:47.037Z,28.40
2022-08-12T14:17:19.968Z,34.60
2022-08-12T14:18:54.363Z,22.00
2022-08-12T14:20:27.040Z,28.80
2022-08-12T14:22:04.506Z,36.40
2022-08-12T14:24:05.361Z,26.20
2022-08-12T14:25:35.715Z,35.60
2022-08-12T14:27:08.961Z,35.60
2022-08-12T14:28:45.414Z,29.80
2022-08-12T14:30:30.730Z,32.20
2022-08-12T14:32:02.533Z,28.60
2022-08-12T14:33:43.975Z,21.60
2022-08-12T14:35:16.305Z,19.80
2022-08-12T14:36:47.995Z,22.00
2022-08-12T14:38:26.177Z,22.60
2022-08-12T14:39:58.195Z,21.00
2022-08-12T14:41:36.705Z,20.20
2022-08-12T14:43:20.023Z,16.80
2022-08-12T14:44:59.849Z,14.40
2022-08-12T14:46:33.386Z,23.20
2022-08-12T14:48:06.358Z,21.80
2022-08-12T14:50:41.814Z,21.40
2022-08-12T14:52:43.944Z,17.40
2022-08-12T14:57:23.536Z,16.80
2022-08-12T14:59:20.340Z,19.20
2022-08-12T15:01:14.110Z,18.60
2022-08-12T15:02:46.456Z,18.40
2022-08-12T15:04:28.554Z,14.40
2022-08-12T15:06:38.811Z,20.60
2022-08-12T15:08:04.837Z,16.60
2022-08-12T15:09:38.466Z,20.20
2022-08-12T15:11:16.444Z,21.40
2022-08-12T15:12:54.535Z,21.60
2022-08-12T15:14:27.439Z,20.20
2022-08-12T15:16:01.696Z,17.00
2022-08-12T15:17:37.945Z,20.20
2022-08-12T15:20:27.786Z,16.00
2022-08-12T15:21:23.439Z,19.60
2022-08-12T15:22:58.075Z,18.80
2022-08-12T15:24:30.583Z,11.40
2022-08-12T15:26:20.527Z,17.60
2022-08-12T15:28:20.630Z,18.80
2022-08-12T15:29:45.250Z,15.80
2022-08-12T15:31:28.210Z,18.00
2022-08-12T15:33:18.854Z,12.80
2022-08-12T15:34:53.497Z,17.60
2022-08-12T15:36:53.952Z,18.60
2022-08-12T15:38:19.682Z,19.00
2022-08-12T15:40:00.746Z,19.20
2022-08-12T15:41:50.299Z,18.20
2022-08-12T15:43:50.933Z,16.80
2022-08-12T15:45:23.847Z,15.00
2022-08-12T15:46:55.791Z,20.60
2022-08-12T15:48:30.403Z,22.40
2022-08-12T15:50:05.312Z,15.80
2022-08-12T15:51:58.186Z,12.80
2022-08-12T15:53:53.186Z,16.40
2022-08-12T15:55:26.928Z,18.20
2022-08-12T15:57:10.788Z,17.20
2022-08-12T15:58:48.853Z,16.00
2022-08-12T16:00:32.336Z,18.00
2022-08-12T16:02:05.284Z,15.40
2022-08-12T16:03:46.054Z,17.40
2022-08-12T16:06:12.303Z,14.80
2022-08-12T16:07:25.973Z,14.20
2022-08-12T16:09:02.613Z,14.80
2022-08-12T16:10:34.376Z,15.80
2022-08-12T16:12:07.880Z,17.00
2022-08-12T16:13:44.524Z,13.40
2022-08-12T16:15:17.472Z,14.20
2022-08-12T16:16:52.772Z,15.60
2022-08-12T16:18:25.996Z,16.20
2022-08-12T16:20:03.082Z,16.80
2022-08-12T16:21:51.258Z,18.00
2022-08-12T16:23:36.205Z,17.80
2022-08-12T16:25:21.105Z,15.80
2022-08-12T16:26:55.572Z,15.40
2022-08-12T16:28:28.365Z,16.20
2022-08-12T16:30:00.192Z,21.60
2022-08-12T16:31:31.965Z,18.40
2022-08-12T16:33:13.835Z,11.60
2022-08-12T16:34:54.966Z,15.40
2022-08-12T16:36:30.537Z,20.60
2022-08-12T16:38:25.578Z,24.40
2022-08-12T16:40:01.321Z,17.60
2022-08-12T16:41:39.619Z,16.40
2022-08-12T16:43:28.173Z,17.40
2022-08-12T16:45:02.150Z,20.20
2022-08-12T16:46:34.420Z,19.80
2022-08-12T16:48:06.265Z,16.20
2022-08-12T16:49:43.856Z,19.80
2022-08-12T16:51:17.892Z,19.00
2022-08-12T16:52:50.140Z,19.40
2022-08-12T16:54:36.138Z,24.00
2022-08-12T16:56:12.480Z,23.20
2022-08-12T16:57:49.478Z,20.20
2022-08-12T16:59:30.856Z,19.40
2022-08-12T17:01:20.680Z,25.00
2022-08-12T17:02:58.319Z,18.60
2022-08-12T17:04:30.485Z,11.40
2022-08-12T17:06:02.244Z,20.00
2022-08-12T17:07:43.339Z,20.20
2022-08-12T17:09:17.772Z,20.60
2022-08-12T17:10:53.362Z,18.80
2022-08-12T17:12:29.267Z,21.60
2022-08-12T17:14:01.776Z,22.60
2022-08-12T17:15:57.367Z,22.20
2022-08-12T17:17:38.790Z,21.80
2022-08-12T17:19:11.271Z,23.60
2022-08-12T17:20:47.177Z,20.60
2022-08-12T17:22:21.821Z,23.20
2022-08-12T17:23:54.450Z,23.40
2022-08-12T17:25:26.354Z,19.40
2022-08-12T17:27:09.495Z,20.00
2022-08-12T17:28:52.230Z,25.00
2022-08-12T17:30:25.321Z,19.80
2022-08-12T17:32:02.634Z,23.40
2022-08-12T17:33:35.892Z,21.40
2022-08-12T17:35:29.951Z,23.20
2022-08-12T17:37:09.368Z,25.40
2022-08-12T17:38:50.758Z,23.60
2022-08-12T17:40:36.389Z,19.60
2022-08-12T17:42:11.048Z,20.00
2022-08-12T17:44:01.805Z,22.40
2022-08-12T17:45:34.266Z,16.40
2022-08-12T17:47:06.255Z,24.00
2022-08-12T17:48:55.196Z,20.00
2022-08-12T17:50:28.567Z,21.00
2022-08-12T17:52:02.235Z,16.20
2022-08-12T17:54:05.932Z,14.20
2022-08-12T17:55:43.117Z,17.80
2022-08-12T17:57:24.324Z,15.00
2022-08-12T17:58:58.188Z,16.40
2022-08-12T18:00:32.160Z,17.40
2022-08-12T18:02:07.123Z,19.60
2022-08-12T18:04:05.390Z,21.20
2022-08-12T18:05:55.898Z,19.40
2022-08-12T18:07:23.605Z,19.20
2022-08-12T18:08:59.063Z,23.40
2022-08-12T18:10:53.050Z,19.40
2022-08-12T18:12:38.693Z,23.20
2022-08-12T18:14:12.050Z,16.60
2022-08-12T18:16:03.979Z,23.80
2022-08-12T18:17:39.664Z,21.80
2022-08-12T18:19:11.514Z,28.80
2022-08-12T18:20:44.998Z,22.80
2022-08-12T18:22:21.717Z,23.40
2022-08-12T18:23:54.350Z,21.60
2022-08-12T18:26:15.609Z,21.80
2022-08-12T18:27:46.682Z,23.00
2022-08-12T18:29:19.117Z,22.00
2022-08-12T18:30:55.838Z,23.60
2022-08-12T18:32:42.210Z,25.60
2022-08-12T18:34:21.158Z,23.40
2022-08-12T18:35:55.487Z,21.40
2022-08-12T18:37:41.885Z,21.20
2022-08-12T18:39:19.580Z,20.60
2022-08-12T18:41:11.394Z,28.00
2022-08-12T18:42:54.366Z,22.80
2022-08-12T18:44:27.922Z,26.80
2022-08-12T18:45:59.720Z,24.40
2022-08-12T18:47:49.865Z,28.00
2022-08-12T18:49:39.145Z,26.20
2022-08-12T18:51:21.971Z,29.00
2022-08-12T18:53:03.939Z,35.80
2022-08-12T18:54:41.537Z,27.40
2022-08-12T18:56:33.169Z,31.20
2022-08-12T18:58:10.116Z,28.40
2022-08-12T19:00:01.582Z,27.20
2022-08-12T19:02:21.403Z,24.00
2022-08-12T19:03:39.564Z,21.40
2022-08-12T19:05:14.381Z,21.40
2022-08-12T19:06:46.889Z,24.00
2022-08-12T19:08:18.968Z,23.00
2022-08-12T19:09:57.440Z,30.60
2022-08-12T19:11:49.583Z,28.00
2022-08-12T19:13:51.678Z,30.00
2022-08-12T19:15:25.629Z,24.20
2022-08-12T19:17:01.349Z,23.20
2022-08-12T19:18:35.635Z,26.40
2022-08-12T19:20:13.659Z,27.20
2022-08-12T19:21:56.686Z,30.80
2022-08-12T19:23:35.116Z,32.40
2022-08-12T19:25:23.691Z,30.60
2022-08-12T19:27:15.808Z,33.40
2022-08-12T19:28:47.752Z,43.20
2022-08-12T19:30:42.864Z,40.80
2022-08-12T19:32:23.668Z,33.20
2022-08-12T19:34:23.820Z,44.60
2022-08-12T19:36:23.987Z,47.20
2022-08-12T19:38:06.744Z,50.00
2022-08-12T19:40:10.221Z,57.00
2022-08-12T19:41:42.503Z,66.00
2022-08-12T19:43:21.835Z,60.00
2022-08-12T19:44:55.469Z,60.00
2022-08-12T19:46:34.426Z,67.20
2022-08-12T19:48:16.990Z,62.60
2022-08-12T19:49:53.293Z,70.60
2022-08-12T19:51:38.304Z,70.00
2022-08-12T19:53:10.376Z,71.60
2022-08-12T19:54:43.852Z,69.60
2022-08-12T19:56:16.190Z,67.00
2022-08-12T19:58:02.473Z,71.50
2022-08-12T19:59:43.033Z,70.80
2022-08-12T20:01:28.210Z,72.20
2022-08-12T20:03:06.289Z,73.40
2022-08-12T20:04:40.959Z,72.20
2022-08-12T20:06:15.506Z,68.00
2022-08-12T20:07:59.057Z,74.50
2022-08-12T20:09:36.678Z,72.75
2022-08-12T20:12:13.089Z,74.00
2022-08-12T20:13:18.299Z,70.25
2022-08-12T20:14:54.292Z,74.50
2022-08-12T20:16:51.004Z,77.25
2022-08-12T20:18:19.225Z,76.75
2022-08-12T20:20:18.993Z,70.75
2022-08-12T20:21:51.694Z,76.75
2022-08-12T20:23:37.358Z,70.25
2022-08-12T20:25:28.564Z,74.75
2022-08-12T20:27:29.043Z,79.75
2022-08-12T20:29:08.775Z,76.50
2022-08-12T20:30:59.189Z,76.25
2022-08-12T20:32:37.611Z,73.50
2022-08-12T20:34:20.131Z,74.50
2022-08-12T20:36:06.574Z,77.25
2022-08-12T20:38:06.263Z,108.25
2022-08-12T20:39:56.662Z,108.25
2022-08-12T20:41:29.220Z,88.50
2022-08-12T20:43:01.203Z,80.75
2022-08-12T20:44:34.400Z,78.50
2022-08-12T20:46:08.215Z,72.25
2022-08-12T20:47:46.718Z,77.25
2022-08-12T20:49:19.169Z,83.75
2022-08-12T20:50:53.398Z,81.00
2022-08-12T20:52:29.828Z,79.25
2022-08-12T20:54:13.450Z,80.00
2022-08-12T20:55:56.999Z,80.25
2022-08-12T20:57:38.112Z,79.75
2022-08-12T20:59:11.789Z,81.50
2022-08-12T21:00:51.761Z,79.00
2022-08-12T21:02:24.774Z,80.75
2022-08-12T21:04:21.064Z,82.50
2022-08-12T21:06:14.186Z,84.25
2022-08-12T21:07:51.620Z,77.75
2022-08-12T21:09:31.361Z,79.50
2022-08-12T21:11:03.636Z,88.00
2022-08-12T21:12:37.529Z,83.25
2022-08-12T21:14:10.616Z,86.25
2022-08-12T21:15:54.588Z,82.75
2022-08-12T21:18:01.169Z,75.50
2022-08-12T21:19:26.015Z,87.00
2022-08-12T21:21:22.793Z,77.25
2022-08-12T21:22:56.040Z,94.25
2022-08-12T21:24:32.288Z,78.25
2022-08-12T21:26:06.073Z,86.50
2022-08-12T21:27:59.162Z,84.00
2022-08-12T21:29:40.094Z,79.50
2022-08-12T21:32:39.594Z,88.25
2022-08-12T21:33:18.337Z,95.00
2022-08-12T21:34:51.506Z,95.50
2022-08-12T21:36:32.350Z,87.50
2022-08-12T21:38:07.727Z,85.50
2022-08-12T21:39:40.032Z,84.00
2022-08-12T21:41:24.279Z,112.00
2022-08-12T21:42:56.113Z,112.00
2022-08-12T21:45:48.268Z,95.50
2022-08-12T21:46:34.978Z,83.00
2022-08-12T21:48:10.184Z,78.50
2022-08-12T21:49:55.476Z,79.00
2022-08-12T21:51:49.392Z,96.25
2022-08-12T21:53:22.634Z,85.50
2022-08-12T21:55:18.340Z,98.50
2022-08-12T21:56:53.599Z,99.75
2022-08-12T21:58:25.696Z,98.50
2022-08-12T21:59:57.486Z,95.25
2022-08-12T22:01:30.223Z,108.00
2022-08-12T22:04:02.962Z,103.75
2022-08-12T22:05:38.744Z,116.75
2022-08-12T22:07:18.731Z,105.25
2022-08-12T22:08:55.129Z,107.75
2022-08-12T22:10:28.233Z,88.00
2022-08-12T22:12:21.538Z,88.50
2022-08-12T22:14:06.925Z,93.00
2022-08-12T22:15:40.367Z,113.25
2022-08-12T22:17:49.569Z,107.75
2022-08-12T22:19:22.988Z,101.25
2022-08-12T22:20:55.167Z,104.00
2022-08-12T22:22:32.832Z,109.50
2022-08-12T22:24:09.776Z,105.00
2022-08-12T22:25:57.936Z,118.25
2022-08-12T22:27:49.773Z,102.00
2022-08-12T22:29:40.395Z,101.25
2022-08-12T22:31:15.158Z,117.25
2022-08-12T22:32:51.581Z,110.25
2022-08-12T22:34:29.863Z,114.20
